Time;durP1;ratioP1;P1;durP2;ratioP2;P2;SDS_P1;SDS_P2;PMS_P1;PMS_P2;Temp;Humidity;BMP_temperature;BMP_pressure;BME280_temperature;BME280_humidity;BME280_pressure;Samples;Min_cycle;Max_cycle;Signal;HPM_P1;HPM_P2
2023/06/21 00:00:15;;;;;;;13.32;7.43;;;;;;;-145.69;nan;52107.72;5076923;28;20688;-89
2023/06/21 00:02:44;;;;;;;22.40;8.80;;;;;;;-145.69;nan;52131.50;5074196;28;20245;-90
2023/06/21 00:05:10;;;;;;;16.25;7.88;;;;;;;-145.69;nan;52119.63;5074170;28;20207;-87
2023/06/21 00:07:41;;;;;;;15.88;7.38;;;;;;;-145.69;nan;52107.72;5074405;28;20277;-89
2023/06/21 00:10:09;;;;;;;13.25;8.35;;;;;;;-145.69;nan;52099.81;5055769;28;20191;-88
2023/06/21 00:12:38;;;;;;;14.65;8.82;;;;;;;-145.69;nan;52119.63;5054413;28;20237;-89
2023/06/21 00:15:06;;;;;;;15.20;8.32;;;;;;;-145.69;nan;52111.69;5054015;28;20678;-87
2023/06/21 00:17:32;;;;;;;13.40;8.10;;;;;;;-145.69;nan;52089.91;5053925;28;20219;-88
2023/06/21 00:20:04;;;;;;;17.13;8.15;;;;;;;-145.69;nan;52107.72;5052939;28;20203;-89
2023/06/21 00:22:35;;;;;;;17.95;8.52;;;;;;;-145.69;nan;52115.66;5054006;28;20929;-88
2023/06/21 00:25:04;;;;;;;12.65;7.80;;;;;;;-145.69;nan;52119.63;5058288;28;20198;-89
2023/06/21 00:27:31;;;;;;;13.95;7.90;;;;;;;-145.69;nan;52109.72;5073881;28;20194;-88
2023/06/21 00:29:57;;;;;;;16.27;8.40;;;;;;;-145.69;nan;52109.72;5073522;28;20278;-89
2023/06/21 00:32:26;;;;;;;16.17;8.02;;;;;;;-145.69;nan;52135.47;5073736;28;20238;-88
2023/06/21 00:34:53;;;;;;;15.40;8.15;;;;;;;-145.69;nan;52111.69;5073554;28;20633;-87
2023/06/21 00:37:21;;;;;;;17.48;8.45;;;;;;;-145.69;nan;52095.84;5073817;28;20211;-87
2023/06/21 00:39:48;;;;;;;19.50;8.45;;;;;;;-145.69;nan;52101.78;5073463;28;20195;-87
2023/06/21 00:42:16;;;;;;;17.95;7.95;;;;;;;-145.69;nan;52085.94;5073308;28;20534;-86
2023/06/21 00:44:46;;;;;;;14.20;7.97;;;;;;;-145.69;nan;52091.88;5072745;28;20211;-87
2023/06/21 00:47:18;;;;;;;17.02;8.25;;;;;;;-145.69;nan;52135.47;5077307;28;20252;-89
2023/06/21 00:49:44;;;;;;;17.92;8.05;;;;;;;-145.69;nan;52095.84;5077540;28;20732;-88
2023/06/21 00:52:11;;;;;;;16.25;8.50;;;;;;;-145.69;nan;52080.00;5077526;28;20222;-89
2023/06/21 00:54:40;;;;;;;14.85;8.93;;;;;;;-145.69;nan;52111.69;5076585;28;20446;-89
2023/06/21 00:57:07;;;;;;;16.67;7.95;;;;;;;-145.69;nan;52115.66;5077481;28;20672;-89
2023/06/21 00:59:37;;;;;;;14.32;8.23;;;;;;;-145.69;nan;52119.63;5077718;28;20206;-86
2023/06/21 01:02:05;;;;;;;24.30;8.10;;;;;;;-145.69;nan;52123.56;5076439;28;20195;-88
2023/06/21 01:04:34;;;;;;;13.63;7.93;;;;;;;-145.69;nan;52115.66;5073744;28;20213;-89
2023/06/21 01:07:08;;;;;;;18.98;9.00;;;;;;;-145.69;nan;52143.38;5077172;28;20221;-87
2023/06/21 01:09:48;;;;;;;14.40;8.20;;;;;;;-145.69;nan;52137.44;5077252;28;20198;-89
2023/06/21 01:12:28;;;;;;;16.70;8.30;;;;;;;-145.69;nan;52103.78;5057162;28;20235;-88
2023/06/21 01:15:01;;;;;;;20.25;9.27;;;;;;;-145.69;nan;52143.38;5057199;28;20207;-89
2023/06/21 01:17:34;;;;;;;16.50;8.63;;;;;;;-145.69;nan;52107.72;5056196;28;20199;-87
2023/06/21 01:20:05;;;;;;;15.80;8.52;;;;;;;-145.69;nan;52127.53;5056978;28;20206;-88
2023/06/21 01:22:46;;;;;;;17.42;8.45;;;;;;;-145.69;nan;52103.78;5056908;28;20200;-87
2023/06/21 01:25:27;;;;;;;17.77;8.13;;;;;;;-145.69;nan;52103.78;5062352;28;20200;-88
2023/06/21 01:28:03;;;;;;;16.70;8.40;;;;;;;-145.69;nan;52109.72;5063948;28;20240;-88
2023/06/21 01:30:33;;;;;;;21.42;8.90;;;;;;;-145.69;nan;52107.72;5076657;28;20194;-89
2023/06/21 01:33:00;;;;;;;14.65;8.35;;;;;;;-145.69;nan;52131.50;5076518;28;20692;-88
2023/06/21 01:35:41;;;;;;;16.50;8.23;;;;;;;-145.69;nan;52107.72;5076466;28;20202;-89
2023/06/21 01:38:08;;;;;;;21.27;8.88;;;;;;;-145.69;nan;52117.63;5074644;28;20883;-88
2023/06/21 01:40:37;;;;;;;12.95;8.70;;;;;;;-145.69;nan;52147.34;5076877;28;20199;-89
2023/06/21 01:43:04;;;;;;;21.45;8.73;;;;;;;-145.69;nan;52127.53;5076555;28;20449;-89
2023/06/21 01:45:32;;;;;;;15.88;8.55;;;;;;;-145.69;nan;52119.63;5076588;28;20205;-88
2023/06/21 01:48:01;;;;;;;19.08;7.68;;;;;;;-145.69;nan;52115.66;5076467;28;20237;-89
2023/06/21 01:50:28;;;;;;;17.25;7.88;;;;;;;-145.69;nan;52125.56;5076667;28;20202;-89
2023/06/21 01:52:56;;;;;;;16.40;7.72;;;;;;;-145.69;nan;52135.47;5076633;28;20223;-90
2023/06/21 01:55:24;;;;;;;14.05;7.53;;;;;;;-145.69;nan;52141.41;5076673;28;20229;-89
2023/06/21 01:57:52;;;;;;;13.77;8.27;;;;;;;-145.69;nan;52095.84;5076254;28;20195;-89
2023/06/21 02:00:21;;;;;;;14.85;8.02;;;;;;;-145.69;nan;52123.56;5076510;28;20297;-89
2023/06/21 02:02:53;;;;;;;16.25;8.60;;;;;;;-145.69;nan;52137.44;5076555;28;20679;-89
2023/06/21 02:05:21;;;;;;;13.68;8.57;;;;;;;-145.69;nan;52145.34;5076292;28;20255;-88
2023/06/21 02:07:51;;;;;;;20.13;8.98;;;;;;;-145.69;nan;52139.41;5076809;28;20203;-89
2023/06/21 02:10:19;;;;;;;15.68;9.07;;;;;;;-145.69;nan;52135.47;5076315;28;20209;-89
2023/06/21 02:12:48;;;;;;;16.58;9.23;;;;;;;-145.69;nan;52151.28;5076074;28;20226;-89
2023/06/21 02:15:16;;;;;;;15.73;8.68;;;;;;;-145.69;nan;52135.47;5076186;28;20204;-88
2023/06/21 02:17:48;;;;;;;17.25;8.70;;;;;;;-145.69;nan;52139.41;5076103;28;20209;-88
2023/06/21 02:20:16;;;;;;;15.73;8.93;;;;;;;-145.69;nan;52137.44;5076015;28;20202;-89
2023/06/21 02:22:43;;;;;;;15.40;8.45;;;;;;;-145.69;nan;52129.50;5075695;28;20209;-88
2023/06/21 02:25:15;;;;;;;19.23;8.90;;;;;;;-145.69;nan;52115.66;5075761;28;20199;-87
2023/06/21 02:27:41;;;;;;;14.23;8.30;;;;;;;-145.69;nan;52137.44;5056285;28;20563;-88
2023/06/21 02:30:09;;;;;;;18.52;8.75;;;;;;;-145.69;nan;52115.66;5056136;28;20210;-90
2023/06/21 02:32:37;;;;;;;13.90;7.75;;;;;;;-145.69;nan;52117.63;5055101;28;20234;-89
2023/06/21 02:35:05;;;;;;;15.88;8.10;;;;;;;-145.69;nan;52171.09;5055647;28;20211;-89
2023/06/21 02:37:33;;;;;;;17.73;9.27;;;;;;;-145.69;nan;52131.50;5075646;28;20195;-89
2023/06/21 02:40:05;;;;;;;16.63;7.97;;;;;;;-145.69;nan;52145.34;5055810;28;20269;-89
2023/06/21 02:42:33;;;;;;;18.83;8.57;;;;;;;-145.69;nan;52119.63;5055745;28;20200;-89
2023/06/21 02:45:02;;;;;;;20.08;8.85;;;;;;;-145.69;nan;52139.41;5055425;28;20199;-88
2023/06/21 02:47:29;;;;;;;15.93;8.70;;;;;;;-145.69;nan;52179.03;5054942;28;20249;-85
2023/06/21 02:49:56;;;;;;;17.02;8.63;;;;;;;-145.69;nan;52147.34;5055041;28;20254;-88
2023/06/21 02:52:22;;;;;;;12.82;8.68;;;;;;;-145.69;nan;52169.13;5054601;28;20230;-88
2023/06/21 02:54:51;;;;;;;14.48;9.15;;;;;;;-145.69;nan;52145.34;5054882;28;20773;-88
2023/06/21 02:57:21;;;;;;;17.33;8.93;;;;;;;-145.69;nan;52133.47;5054655;28;20215;-87
2023/06/21 02:59:49;;;;;;;15.65;8.98;;;;;;;-145.69;nan;52153.28;5055118;28;20543;-88
2023/06/21 03:02:17;;;;;;;13.90;8.32;;;;;;;-145.69;nan;52167.13;5054017;28;20658;-89
2023/06/21 03:04:44;;;;;;;18.67;9.30;;;;;;;-145.69;nan;52131.50;5067608;28;20211;-88
2023/06/21 03:07:10;;;;;;;18.55;8.98;;;;;;;-145.69;nan;52121.59;5074592;28;20199;-87
2023/06/21 03:09:37;;;;;;;16.92;8.93;;;;;;;-145.69;nan;52173.09;5074022;28;20201;-88
2023/06/21 03:12:08;;;;;;;20.63;8.50;;;;;;;-145.69;nan;52147.34;5074557;28;20226;-87
2023/06/21 03:14:37;;;;;;;17.85;9.35;;;;;;;-145.69;nan;52145.34;5074780;28;20726;-87
2023/06/21 03:17:08;;;;;;;15.75;7.65;;;;;;;-145.69;nan;52137.44;5074263;28;20199;-88
2023/06/21 03:19:38;;;;;;;23.05;8.32;;;;;;;-145.69;nan;52123.56;5075022;28;20617;-88
2023/06/21 03:22:05;;;;;;;14.95;9.05;;;;;;;-145.69;nan;52119.63;5073339;28;20203;-89
2023/06/21 03:24:33;;;;;;;16.38;8.98;;;;;;;-145.69;nan;52145.34;5075319;28;20198;-89
2023/06/21 03:27:01;;;;;;;12.10;7.72;;;;;;;-145.69;nan;52147.34;5074475;28;20202;-88
2023/06/21 03:29:29;;;;;;;16.17;8.82;;;;;;;-145.69;nan;52129.50;5074626;28;20221;-89
2023/06/21 03:31:55;;;;;;;19.27;8.25;;;;;;;-145.69;nan;52125.56;5074298;28;20254;-89
2023/06/21 03:34:22;;;;;;;18.50;7.55;;;;;;;-145.69;nan;52099.81;5074749;28;20199;-88
2023/06/21 03:36:53;;;;;;;10.65;7.22;;;;;;;-145.69;nan;52141.41;5074545;28;20194;-89
2023/06/21 03:39:19;;;;;;;13.48;7.28;;;;;;;-145.69;nan;52109.72;5077098;28;20221;-89
2023/06/21 03:41:46;;;;;;;11.80;7.45;;;;;;;-145.69;nan;52099.81;5075627;28;20281;-89
2023/06/21 03:44:15;;;;;;;12.63;7.88;;;;;;;-145.69;nan;52143.38;5074293;28;20191;-89
2023/06/21 03:46:43;;;;;;;13.90;7.60;;;;;;;-145.69;nan;52143.38;5072313;28;20591;-89
2023/06/21 03:49:11;;;;;;;15.90;8.05;;;;;;;-145.69;nan;52125.56;5074630;28;20234;-89
2023/06/21 03:51:39;;;;;;;14.20;8.15;;;;;;;-145.69;nan;52123.56;5073027;28;20206;-89
2023/06/21 03:54:05;;;;;;;13.98;8.85;;;;;;;-145.69;nan;52143.38;5072721;28;20332;-88
2023/06/21 03:56:34;;;;;;;15.85;7.57;;;;;;;-145.69;nan;52135.47;5074455;28;20199;-91
2023/06/21 03:59:00;;;;;;;15.20;7.45;;;;;;;-145.69;nan;52121.59;5075153;28;20194;-90
2023/06/21 04:01:30;;;;;;;18.35;7.93;;;;;;;-145.69;nan;52129.50;5074434;28;20256;-90
2023/06/21 04:03:57;;;;;;;14.18;7.43;;;;;;;-145.69;nan;52121.59;5074643;28;20206;-89
2023/06/21 04:06:25;;;;;;;15.80;8.20;;;;;;;-145.69;nan;52135.47;5073681;28;20199;-89
2023/06/21 04:08:52;;;;;;;13.15;8.57;;;;;;;-145.69;nan;52127.53;5074708;28;20665;-89
2023/06/21 04:11:24;;;;;;;17.38;7.50;;;;;;;-145.69;nan;52149.31;5078325;28;20237;-88
2023/06/21 04:13:53;;;;;;;14.77;8.00;;;;;;;-145.69;nan;52127.53;5076562;28;20636;-89
2023/06/21 04:16:20;;;;;;;15.02;7.75;;;;;;;-145.69;nan;52091.88;5074685;28;20290;-90
2023/06/21 04:18:48;;;;;;;15.48;8.27;;;;;;;-145.69;nan;52175.06;5075000;28;20199;-90
2023/06/21 04:21:16;;;;;;;13.90;7.82;;;;;;;-145.69;nan;52155.25;5078853;28;20668;-90
2023/06/21 04:23:43;;;;;;;12.65;8.10;;;;;;;-145.69;nan;52127.53;5079547;28;20203;-90
2023/06/21 04:26:12;;;;;;;17.83;7.72;;;;;;;-145.69;nan;52143.38;5079223;28;20194;-90
2023/06/21 04:28:42;;;;;;;16.42;8.02;;;;;;;-145.69;nan;52103.78;5089216;28;20221;-90
2023/06/21 04:31:08;;;;;;;17.65;8.30;;;;;;;-145.69;nan;52115.66;5080412;28;20558;-90
2023/06/21 04:33:37;;;;;;;14.70;7.78;;;;;;;-145.69;nan;52143.38;5079846;28;20249;-90
2023/06/21 04:36:04;;;;;;;18.92;8.07;;;;;;;-145.69;nan;52127.53;5079196;28;20226;-90
2023/06/21 04:38:35;;;;;;;14.48;8.07;;;;;;;-145.69;nan;52135.47;5082653;28;20186;-90
2023/06/21 04:41:01;;;;;;;12.70;7.30;;;;;;;-145.69;nan;52113.66;5079091;28;20209;-90
2023/06/21 04:43:28;;;;;;;16.08;8.07;;;;;;;-145.69;nan;52103.78;5079554;28;20657;-90
2023/06/21 04:45:59;;;;;;;14.48;8.05;;;;;;;-145.69;nan;52111.69;5079018;28;20229;-89
2023/06/21 04:48:26;;;;;;;12.85;7.10;;;;;;;-145.69;nan;52121.59;5080138;28;20231;-91
2023/06/21 04:50:52;;;;;;;25.25;7.57;;;;;;;-145.69;nan;52111.69;5084387;28;20206;-91
2023/06/21 04:53:28;;;;;;;12.00;7.43;;;;;;;-145.69;nan;52111.69;5085195;28;20601;-91
2023/06/21 04:56:06;;;;;;;12.50;6.70;;;;;;;-145.69;nan;52099.81;5079620;28;20194;-90
2023/06/21 04:58:38;;;;;;;11.23;7.47;;;;;;;-145.69;nan;52095.84;5077309;28;20287;-90
2023/06/21 05:01:08;;;;;;;14.13;6.85;;;;;;;-145.69;nan;52099.81;5075710;28;20195;-90
2023/06/21 05:03:38;;;;;;;13.98;7.30;;;;;;;-145.69;nan;52048.31;5076330;28;20442;-90
2023/06/21 05:06:05;;;;;;;13.35;7.30;;;;;;;-145.69;nan;52083.97;5077904;28;20207;-90
2023/06/21 05:08:32;;;;;;;17.15;7.30;;;;;;;-145.69;nan;52087.94;5077451;28;20187;-90
2023/06/21 05:11:00;;;;;;;13.90;6.68;;;;;;;-145.69;nan;52048.31;5077774;28;20205;-90
2023/06/21 05:13:26;;;;;;;14.35;7.40;;;;;;;-145.69;nan;52115.66;5077283;28;20223;-90
2023/06/21 05:15:55;;;;;;;19.52;6.88;;;;;;;-145.69;nan;52089.91;5077897;28;20198;-90
2023/06/21 05:18:24;;;;;;;14.23;6.97;;;;;;;-145.69;nan;52083.97;5077478;28;20198;-90
2023/06/21 05:20:51;;;;;;;16.17;7.10;;;;;;;-145.69;nan;52082.00;5077524;28;20259;-89
2023/06/21 05:23:17;;;;;;;15.30;6.90;;;;;;;-145.69;nan;52072.09;5077749;28;20280;-91
2023/06/21 05:25:44;;;;;;;10.57;7.03;;;;;;;-145.69;nan;52068.13;5075870;28;20213;-89
2023/06/21 05:28:15;;;;;;;13.35;6.65;;;;;;;-145.69;nan;52076.03;5076673;28;20195;-89
2023/06/21 05:30:42;;;;;;;13.30;6.38;;;;;;;-145.69;nan;52056.25;5075812;28;20195;-90
2023/06/21 05:33:08;;;;;;;20.20;7.90;;;;;;;-145.69;nan;52042.38;5076987;28;20236;-88
2023/06/21 05:35:35;;;;;;;11.15;6.47;;;;;;;-145.69;nan;52080.00;5076904;28;20203;-90
2023/06/21 05:38:02;;;;;;;15.07;7.30;;;;;;;-145.69;nan;52095.84;5076922;28;20202;-90
2023/06/21 05:40:28;;;;;;;13.20;6.53;;;;;;;-145.69;nan;52044.38;5076916;28;20206;-90
2023/06/21 05:43:02;;;;;;;12.10;6.72;;;;;;;-145.69;nan;52044.38;5059626;28;20253;-89
2023/06/21 05:45:29;;;;;;;14.40;6.63;;;;;;;-145.69;nan;52052.28;5078013;28;20594;-90
2023/06/21 05:47:59;;;;;;;10.50;6.22;;;;;;;-145.69;nan;52020.59;5077899;28;20593;-90
2023/06/21 05:50:25;;;;;;;11.23;6.32;;;;;;;-145.69;nan;52060.22;5080019;28;20600;-90
2023/06/21 05:52:54;;;;;;;11.52;6.20;;;;;;;-145.69;nan;52028.53;5078032;28;20242;-90
2023/06/21 05:55:23;;;;;;;11.95;6.45;;;;;;;-145.69;nan;52020.59;5078219;28;20612;-90
2023/06/21 05:57:50;;;;;;;13.32;6.13;;;;;;;-145.69;nan;52012.69;5076917;28;20677;-91
2023/06/21 06:00:18;;;;;;;10.63;6.10;;;;;;;-145.69;nan;52016.66;5076974;28;20198;-90
2023/06/21 06:02:46;;;;;;;12.07;5.57;;;;;;;-145.69;nan;52032.47;5076151;28;20225;-90
2023/06/21 06:05:14;;;;;;;13.80;6.13;;;;;;;-145.69;nan;52024.56;5074651;28;20701;-84
2023/06/21 06:07:41;;;;;;;12.95;6.32;;;;;;;-145.69;nan;52000.81;5074036;28;20191;-84
2023/06/21 06:10:08;;;;;;;14.18;6.72;;;;;;;-145.69;nan;52036.44;5074344;28;20203;-83
2023/06/21 06:12:35;;;;;;;13.73;6.20;;;;;;;-145.69;nan;52040.41;5074269;28;20226;-84
2023/06/21 06:15:01;;;;;;;12.63;6.18;;;;;;;-145.69;nan;52000.81;5074247;28;20241;-84
2023/06/21 06:17:28;;;;;;;9.13;5.90;;;;;;;-145.69;nan;52000.81;5074400;28;20251;-81
2023/06/21 06:19:56;;;;;;;10.73;6.45;;;;;;;-145.69;nan;51986.94;5074028;28;20819;-82
2023/06/21 06:22:23;;;;;;;12.02;6.00;;;;;;;-145.69;nan;51982.97;5074269;28;20210;-81
2023/06/21 06:24:52;;;;;;;12.18;6.35;;;;;;;-145.69;nan;51939.41;5074040;28;20203;-82
2023/06/21 06:27:19;;;;;;;12.27;5.97;;;;;;;-145.69;nan;52004.75;5073664;28;20203;-81
2023/06/21 06:29:45;;;;;;;14.18;6.18;;;;;;;-145.69;nan;51975.06;5073229;28;20711;-81
2023/06/21 06:32:12;;;;;;;11.48;6.25;;;;;;;-145.69;nan;51996.84;5073613;28;20199;-82
2023/06/21 06:34:38;;;;;;;14.73;6.10;;;;;;;-145.69;nan;51984.97;5073510;28;20314;-82
2023/06/21 06:37:06;;;;;;;14.00;6.07;;;;;;;-145.69;nan;51996.84;5073501;28;20244;-83
2023/06/21 06:39:33;;;;;;;10.60;6.15;;;;;;;-145.69;nan;51994.88;5073782;28;20321;-83
2023/06/21 06:42:05;;;;;;;12.05;5.75;;;;;;;-145.69;nan;51979.03;5073377;28;20199;-82
2023/06/21 06:44:31;;;;;;;13.38;5.38;;;;;;;-145.69;nan;51981.00;5073592;28;20202;-83
2023/06/21 06:47:00;;;;;;;12.73;5.40;;;;;;;-145.69;nan;51988.91;5073938;28;20210;-84
2023/06/21 06:49:27;;;;;;;12.55;6.07;;;;;;;-145.69;nan;51973.06;5073706;28;20241;-84
2023/06/21 06:51:53;;;;;;;14.30;5.20;;;;;;;-145.69;nan;51965.16;5073443;28;20199;-83
2023/06/21 06:54:22;;;;;;;12.43;6.05;;;;;;;-145.69;nan;51984.97;5073635;28;20222;-83
2023/06/21 06:56:49;;;;;;;9.60;5.55;;;;;;;-145.69;nan;51961.19;5073489;28;20205;-81
2023/06/21 06:59:16;;;;;;;9.32;5.97;;;;;;;-145.69;nan;51971.09;5073671;28;20234;-73
2023/06/21 07:01:42;;;;;;;10.88;5.90;;;;;;;-145.69;nan;51933.47;5071622;28;20521;-76
2023/06/21 07:04:11;;;;;;;12.32;5.25;;;;;;;-145.69;nan;51949.31;5073565;28;20211;-75
2023/06/21 07:06:37;;;;;;;13.52;5.53;;;;;;;-145.69;nan;51982.97;5064557;28;20654;-75
2023/06/21 07:09:04;;;;;;;14.70;5.43;;;;;;;-145.69;nan;51949.31;5053534;28;20206;-76
2023/06/21 07:11:32;;;;;;;12.13;5.43;;;;;;;-145.69;nan;51955.25;5067084;28;20199;-75
2023/06/21 07:13:58;;;;;;;10.02;4.88;;;;;;;-145.69;nan;51933.47;5073214;28;20751;-76
2023/06/21 07:16:25;;;;;;;13.20;5.25;;;;;;;-145.69;nan;51975.06;5073236;28;20206;-76
2023/06/21 07:18:54;;;;;;;10.98;5.47;;;;;;;-145.69;nan;51951.28;5073006;28;20566;-73
2023/06/21 07:21:21;;;;;;;12.88;5.22;;;;;;;-145.69;nan;51925.56;5073140;28;20201;-73
2023/06/21 07:23:48;;;;;;;11.30;5.18;;;;;;;-145.69;nan;51925.56;5072622;28;20213;-73
2023/06/21 07:26:17;;;;;;;8.95;5.07;;;;;;;-145.69;nan;51927.53;5073389;28;20210;-74
2023/06/21 07:28:45;;;;;;;9.18;5.03;;;;;;;-145.69;nan;51931.50;5072885;28;20696;-73
2023/06/21 07:31:11;;;;;;;8.25;5.00;;;;;;;-145.69;nan;51919.63;5072840;28;20715;-73
2023/06/21 07:33:38;;;;;;;11.65;5.28;;;;;;;-145.69;nan;51949.31;5072802;28;21030;-73
2023/06/21 07:36:06;;;;;;;16.73;5.50;;;;;;;-145.69;nan;51876.06;5072725;28;20209;-75
2023/06/21 07:38:34;;;;;;;10.88;4.50;;;;;;;-145.69;nan;51838.44;5072919;28;20222;-74
2023/06/21 07:41:01;;;;;;;9.95;5.05;;;;;;;-145.69;nan;51860.22;5072474;28;20199;-74
2023/06/21 07:43:27;;;;;;;9.05;4.85;;;;;;;-145.69;nan;51854.28;5072738;28;20234;-73
2023/06/21 07:45:55;;;;;;;12.10;5.10;;;;;;;-145.69;nan;51866.16;5072985;28;20243;-74
2023/06/21 07:48:22;;;;;;;13.00;4.85;;;;;;;-145.69;nan;51897.84;5072211;28;20234;-73
2023/06/21 07:50:48;;;;;;;14.93;4.97;;;;;;;-145.69;nan;51943.38;5073031;28;20240;-74
2023/06/21 07:53:16;;;;;;;7.45;4.82;;;;;;;-145.69;nan;51945.34;5072366;28;20226;-74
2023/06/21 07:55:43;;;;;;;10.43;5.07;;;;;;;-145.69;nan;51969.13;5072268;28;20700;-76
2023/06/21 07:58:10;;;;;;;10.00;4.63;;;;;;;-145.69;nan;51953.28;5070381;28;20309;-76
2023/06/21 08:00:37;;;;;;;8.15;4.93;;;;;;;-145.69;nan;51971.09;5072283;28;20260;-75
2023/06/21 08:03:05;;;;;;;10.57;4.75;;;;;;;-145.69;nan;52016.66;5071765;28;20546;-75
2023/06/21 08:05:31;;;;;;;12.77;5.55;;;;;;;-145.69;nan;51996.84;5071486;28;20646;-77
2023/06/21 08:08:01;;;;;;;9.35;5.53;;;;;;;-145.69;nan;52012.69;5072235;28;20202;-76
2023/06/21 08:10:28;;;;;;;18.35;6.38;;;;;;;-145.69;nan;51998.81;5073305;28;20222;-87
2023/06/21 08:12:54;;;;;;;64.13;8.60;;;;;;;-145.69;nan;52006.75;5072697;28;20207;-84
2023/06/21 08:15:22;;;;;;;26.50;6.25;;;;;;;-145.69;nan;52078.03;5072231;28;20238;-85
2023/06/21 08:17:51;;;;;;;36.22;4.15;;;;;;;-145.69;nan;52127.53;5072571;28;20697;-82
2023/06/21 08:20:19;;;;;;;13.23;3.08;;;;;;;-145.69;nan;52163.19;5072712;28;20198;-85
2023/06/21 08:22:46;;;;;;;31.48;4.20;;;;;;;-145.69;nan;52145.34;5072525;28;20194;-86
2023/06/21 08:25:12;;;;;;;20.58;4.28;;;;;;;-145.69;nan;52139.41;5072823;28;20554;-86
2023/06/21 08:27:39;;;;;;;25.13;3.72;;;;;;;-145.69;nan;52149.31;5072691;28;20666;-87
2023/06/21 08:30:07;;;;;;;25.65;5.53;;;;;;;-145.69;nan;52159.22;5072739;28;20252;-86
2023/06/21 08:32:36;;;;;;;28.20;4.50;;;;;;;-145.69;nan;52155.25;5073091;28;20206;-87
2023/06/21 08:35:03;;;;;;;22.23;5.35;;;;;;;-145.69;nan;52151.28;5072709;28;20237;-86
2023/06/21 08:37:31;;;;;;;30.75;5.15;;;;;;;-145.69;nan;52121.59;5073018;28;20637;-85
2023/06/21 08:39:58;;;;;;;30.35;5.63;;;;;;;-145.69;nan;52165.16;5071793;28;20202;-85
2023/06/21 08:42:26;;;;;;;27.17;4.88;;;;;;;-145.69;nan;52194.88;5072771;28;20203;-86
2023/06/21 08:44:53;;;;;;;24.45;5.80;;;;;;;-145.69;nan;52159.22;5072461;28;20203;-87
2023/06/21 08:47:22;;;;;;;29.92;5.43;;;;;;;-145.69;nan;52147.34;5072920;28;20264;-86
2023/06/21 08:49:50;;;;;;;24.08;4.90;;;;;;;-145.69;nan;52169.13;5072469;28;20198;-87
2023/06/21 08:52:19;;;;;;;29.17;5.65;;;;;;;-145.69;nan;52171.09;5072392;28;20223;-86
2023/06/21 08:54:57;;;;;;;24.63;5.15;;;;;;;-145.69;nan;52206.75;5072375;28;20226;-86
2023/06/21 08:57:30;;;;;;;23.08;4.47;;;;;;;-145.69;nan;52202.78;5072637;28;20758;-87
2023/06/21 09:00:01;;;;;;;24.98;5.20;;;;;;;-145.69;nan;52175.06;5072295;28;20214;-86
2023/06/21 09:02:37;;;;;;;24.38;5.22;;;;;;;-145.69;nan;52186.94;5072546;28;20218;-87
2023/06/21 09:05:07;;;;;;;24.08;4.75;;;;;;;-145.69;nan;52198.81;5072151;28;20671;-86
2023/06/21 09:07:38;;;;;;;25.95;5.47;;;;;;;-145.69;nan;52230.50;5075042;28;20312;-86
2023/06/21 09:10:15;;;;;;;25.33;5.22;;;;;;;-145.69;nan;52218.63;5075077;28;20206;-86
2023/06/21 09:12:44;;;;;;;25.30;5.45;;;;;;;-145.69;nan;52175.06;5076014;28;20229;-86
2023/06/21 09:15:12;;;;;;;22.80;5.10;;;;;;;-145.69;nan;52175.06;5075709;28;20653;-87
2023/06/21 09:17:39;;;;;;;18.52;4.57;;;;;;;-145.69;nan;52198.81;5076153;28;20240;-86
2023/06/21 09:20:08;;;;;;;26.92;4.97;;;;;;;-145.69;nan;52171.09;5073006;28;20207;-87
2023/06/21 09:22:38;;;;;;;23.95;5.25;;;;;;;-145.69;nan;52192.88;5075596;28;20202;-86
2023/06/21 09:25:08;;;;;;;24.48;4.93;;;;;;;-145.69;nan;52198.81;5075795;28;20222;-86
2023/06/21 09:27:38;;;;;;;20.42;5.40;;;;;;;-145.69;nan;52173.09;5076003;28;20201;-86
2023/06/21 09:30:05;;;;;;;26.20;5.22;;;;;;;-145.69;nan;52173.09;5075527;28;20195;-86
2023/06/21 09:32:35;;;;;;;20.00;5.38;;;;;;;-145.69;nan;52194.88;5075717;28;20336;-85
2023/06/21 09:35:02;;;;;;;27.92;5.90;;;;;;;-145.69;nan;52212.69;5072617;28;20559;-86
2023/06/21 09:37:34;;;;;;;30.10;5.28;;;;;;;-145.69;nan;52212.69;5075526;28;20198;-89
2023/06/21 09:40:03;;;;;;;19.70;4.50;;;;;;;-145.69;nan;52206.75;5075655;28;20222;-88
2023/06/21 09:42:31;;;;;;;21.65;5.10;;;;;;;-145.69;nan;52177.03;5076182;28;20198;-90
2023/06/21 09:45:00;;;;;;;24.80;5.13;;;;;;;-145.69;nan;52184.97;5076065;28;20549;-92
2023/06/21 09:47:31;;;;;;;18.25;4.65;;;;;;;-145.69;nan;52216.66;5075302;28;20287;-89
2023/06/21 09:50:05;;;;;;;18.05;4.40;;;;;;;-145.69;nan;52159.22;5076262;28;20235;-90
2023/06/21 09:52:34;;;;;;;18.98;4.60;;;;;;;-145.69;nan;52175.06;5075809;28;20191;-87
2023/06/21 09:55:01;;;;;;;19.30;4.70;;;;;;;-145.69;nan;52179.03;5073559;28;20234;-89
2023/06/21 09:57:38;;;;;;;21.95;4.68;;;;;;;-145.69;nan;52186.94;5074866;28;20230;-87
2023/06/21 10:00:17;;;;;;;15.52;4.18;;;;;;;-145.69;nan;52141.41;5075317;28;20198;-88
2023/06/21 10:02:44;;;;;;;23.65;4.88;;;;;;;-145.69;nan;52173.09;5081544;28;20579;-86
2023/06/21 10:05:17;;;;;;;23.23;4.72;;;;;;;-145.69;nan;52171.09;5075144;28;20210;-87
2023/06/21 10:07:44;;;;;;;21.05;4.13;;;;;;;-145.69;nan;52103.78;5074914;28;20198;-85
2023/06/21 10:10:19;;;;;;;19.73;4.10;;;;;;;-145.69;nan;52151.28;5074782;28;20719;-86
2023/06/21 10:12:54;;;;;;;22.15;3.20;;;;;;;-145.69;nan;52107.72;5075108;28;20233;-88
2023/06/21 10:15:23;;;;;;;19.27;3.67;;;;;;;-145.69;nan;52111.69;5074760;28;20784;-87
2023/06/21 10:17:49;;;;;;;13.77;3.00;;;;;;;-145.69;nan;52111.69;5074740;28;20210;-87
2023/06/21 10:20:16;;;;;;;14.45;3.47;;;;;;;-145.69;nan;52103.78;5074309;28;20230;-85
2023/06/21 10:22:46;;;;;;;23.98;3.83;;;;;;;-145.69;nan;52087.94;5073814;28;20206;-85
2023/06/21 10:25:15;;;;;;;13.95;3.30;;;;;;;-145.69;nan;52119.63;5074360;28;20217;-85
2023/06/21 10:27:46;;;;;;;14.43;3.22;;;;;;;-145.69;nan;52091.88;5073945;28;20209;-85
2023/06/21 10:30:21;;;;;;;12.27;2.80;;;;;;;-145.69;nan;52062.19;5073789;28;20565;-85
2023/06/21 10:32:48;;;;;;;19.08;3.65;;;;;;;-145.69;nan;52062.19;5074144;28;20312;-84
2023/06/21 10:35:19;;;;;;;18.02;3.35;;;;;;;-145.69;nan;52068.13;5074116;28;20317;-83
2023/06/21 10:37:51;;;;;;;18.88;3.20;;;;;;;-145.69;nan;52087.94;5073721;28;20198;-84
2023/06/21 10:40:19;;;;;;;17.10;3.33;;;;;;;-145.69;nan;52074.06;5074221;28;20214;-85
2023/06/21 10:42:47;;;;;;;9.85;3.22;;;;;;;-145.69;nan;52060.22;5073946;28;20203;-84
2023/06/21 10:45:14;;;;;;;13.85;2.75;;;;;;;-145.69;nan;52066.16;5073000;28;20203;-86
2023/06/21 10:47:41;;;;;;;13.45;2.72;;;;;;;-145.69;nan;52048.31;5073951;28;20203;-85
2023/06/21 10:50:12;;;;;;;10.60;3.45;;;;;;;-145.69;nan;52072.09;5074110;28;20213;-86
2023/06/21 10:52:40;;;;;;;10.30;3.25;;;;;;;-145.69;nan;52099.81;5073717;28;20554;-84
2023/06/21 10:55:08;;;;;;;16.20;2.97;;;;;;;-145.69;nan;52095.84;5072339;28;20309;-85
2023/06/21 10:57:35;;;;;;;8.38;2.88;;;;;;;-145.69;nan;52064.16;5072658;28;20236;-86
2023/06/21 11:00:05;;;;;;;8.93;2.80;;;;;;;-145.69;nan;52080.00;5073594;28;20732;-85
2023/06/21 11:02:34;;;;;;;5.53;2.28;;;;;;;-145.69;nan;52068.13;5073625;28;20380;-86
2023/06/21 11:05:14;;;;;;;10.73;2.47;;;;;;;-145.69;nan;52089.91;5073710;28;20199;-86
2023/06/21 11:07:48;;;;;;;8.05;2.90;;;;;;;-145.69;nan;52089.91;5073541;28;20210;-85
2023/06/21 11:10:15;;;;;;;8.57;3.00;;;;;;;-145.69;nan;52046.34;5073418;28;20198;-85
2023/06/21 11:12:41;;;;;;;5.93;2.08;;;;;;;-145.69;nan;52083.97;5071600;28;20203;-84
2023/06/21 11:15:09;;;;;;;6.13;2.72;;;;;;;-145.69;nan;52080.00;5054001;28;20236;-85
2023/06/21 11:17:37;;;;;;;8.07;2.28;;;;;;;-145.69;nan;52099.81;5053372;28;20204;-84
2023/06/21 11:20:19;;;;;;;5.80;2.33;;;;;;;-145.69;nan;52064.16;5053490;28;20195;-83
2023/06/21 11:22:55;;;;;;;6.45;2.92;;;;;;;-145.69;nan;52083.97;5059127;28;20195;-83
2023/06/21 11:25:22;;;;;;;4.05;2.13;;;;;;;-145.69;nan;52064.16;5073211;28;20213;-84
2023/06/21 11:28:26;;;;;;;6.07;2.63;;;;;;;-145.69;nan;52091.88;5073252;28;20668;-84
2023/06/21 11:31:16;;;;;;;4.15;2.20;;;;;;;-145.69;nan;52089.91;5072508;28;20282;-84
2023/06/21 11:33:52;;;;;;;5.00;2.17;;;;;;;-145.69;nan;52076.03;5072841;28;20206;-83